Time;durP1;ratioP1;P1;durP2;ratioP2;P2;SDS_P1;SDS_P2;PMS_P1;PMS_P2;Temp;Humidity;BMP_temperature;BMP_pressure;BME280_temperature;BME280_humidity;BME280_pressure;Samples;Min_cycle;Max_cycle;Signal;HPM_P1;HPM_P2
2023/01/31 00:00:17;;;;;;;17.10;2.70;;;3.80;99.90;;;;;;5095732;27;20043;-84
2023/01/31 00:02:43;;;;;;;14.15;3.00;;;3.80;99.90;;;;;;5092060;28;20028;-85
2023/01/31 00:05:08;;;;;;;18.73;2.15;;;3.70;99.90;;;;;;5101652;27;20100;-85
2023/01/31 00:07:34;;;;;;;15.75;2.22;;;3.70;99.90;;;;;;5098445;28;20039;-84
2023/01/31 00:09:59;;;;;;;15.13;2.40;;;3.70;99.90;;;;;;5097985;28;20093;-84
2023/01/31 00:12:25;;;;;;;18.17;2.53;;;3.60;99.90;;;;;;5073783;28;20058;-85
2023/01/31 00:14:51;;;;;;;17.70;2.38;;;3.60;99.90;;;;;;5081475;28;20164;-84
2023/01/31 00:17:16;;;;;;;16.45;2.70;;;3.60;99.90;;;;;;5096090;28;20042;-84
2023/01/31 00:19:42;;;;;;;17.63;2.85;;;3.50;99.90;;;;;;5097425;27;20411;-85
2023/01/31 00:22:07;;;;;;;21.00;2.85;;;3.50;99.90;;;;;;5101448;27;20130;-84
2023/01/31 00:24:33;;;;;;;13.80;2.35;;;3.50;99.90;;;;;;5097472;27;20489;-84
2023/01/31 00:26:58;;;;;;;21.92;2.63;;;3.50;99.90;;;;;;5101459;27;20042;-84
2023/01/31 00:29:24;;;;;;;18.63;3.33;;;3.50;99.90;;;;;;5089969;27;20039;-84
2023/01/31 00:31:50;;;;;;;18.20;3.00;;;3.50;99.90;;;;;;5096938;28;20039;-84
2023/01/31 00:41:38;;;;;;;15.80;2.53;;;3.50;99.90;;;;;;5102934;27;20054;-85
2023/01/31 00:44:04;;;;;;;16.10;2.25;;;3.30;99.90;;;;;;5091868;28;20075;-84
2023/01/31 00:46:30;;;;;;;17.48;2.20;;;3.30;99.90;;;;;;5084396;27;20079;-85
2023/01/31 00:48:56;;;;;;;13.02;2.25;;;3.30;99.90;;;;;;5090942;28;20032;-84
2023/01/31 00:51:23;;;;;;;22.30;2.70;;;3.20;99.90;;;;;;5096065;27;20027;-84
2023/01/31 01:12:14;;;;;;;20.00;2.63;;;2.90;99.90;;;;;;5098205;28;20127;-84
2023/01/31 01:14:39;;;;;;;13.45;2.15;;;3.00;99.90;;;;;;5080840;28;20118;-84
2023/01/31 01:17:05;;;;;;;14.48;2.60;;;3.00;99.90;;;;;;5094265;28;20127;-85
2023/01/31 01:19:30;;;;;;;13.77;2.70;;;2.90;99.90;;;;;;5088566;28;20118;-84
2023/01/31 01:21:56;;;;;;;17.77;2.22;;;2.90;99.90;;;;;;5088270;28;20046;-84
2023/01/31 01:24:21;;;;;;;19.77;2.28;;;2.90;99.90;;;;;;5103336;28;20530;-84
2023/01/31 01:26:47;;;;;;;14.20;2.30;;;2.90;99.90;;;;;;5081853;27;20504;-85
2023/01/31 01:29:12;;;;;;;17.13;2.85;;;2.90;99.90;;;;;;5103373;28;20054;-84
2023/01/31 01:31:38;;;;;;;14.65;2.25;;;2.80;99.90;;;;;;5098844;27;20039;-85
2023/01/31 01:34:07;;;;;;;14.30;1.85;;;2.80;99.90;;;;;;5094906;28;20040;-85
2023/01/31 01:36:34;;;;;;;17.17;2.53;;;2.80;99.90;;;;;;5096904;27;20382;-85
2023/01/31 01:39:01;;;;;;;14.50;2.53;;;2.80;99.90;;;;;;5095814;28;20088;-84
2023/01/31 01:41:27;;;;;;;16.60;2.70;;;2.80;99.90;;;;;;5080312;27;20031;-84
2023/01/31 01:43:57;;;;;;;18.13;2.75;;;2.80;99.90;;;;;;5087729;28;20421;-84
2023/01/31 01:46:34;;;;;;;12.77;3.08;;;2.80;99.90;;;;;;5108311;27;20043;-84
2023/01/31 01:49:04;;;;;;;14.60;2.83;;;2.90;99.90;;;;;;5104911;28;20032;-84
2023/01/31 01:51:32;;;;;;;15.18;2.28;;;2.90;99.90;;;;;;5099931;28;20114;-84
2023/01/31 01:54:03;;;;;;;12.18;1.95;;;2.90;99.90;;;;;;5099017;27;20063;-83
2023/01/31 01:56:35;;;;;;;18.17;2.33;;;3.00;99.90;;;;;;5103597;28;20043;-84
2023/01/31 01:59:09;;;;;;;19.50;2.30;;;3.00;99.90;;;;;;5096164;28;20043;-84
2023/01/31 02:01:36;;;;;;;13.70;2.38;;;3.00;99.90;;;;;;5098102;27;20150;-84
2023/01/31 02:04:05;;;;;;;11.80;1.88;;;3.10;99.90;;;;;;5101984;27;20052;-84
2023/01/31 02:06:31;;;;;;;14.32;2.80;;;3.10;99.90;;;;;;5114974;27;20028;-84
2023/01/31 02:08:57;;;;;;;19.25;2.42;;;3.10;99.90;;;;;;5089004;27;20076;-84
2023/01/31 02:11:28;;;;;;;15.77;2.22;;;3.10;99.90;;;;;;5104769;27;20035;-84
2023/01/31 02:14:04;;;;;;;15.07;2.22;;;3.10;99.90;;;;;;5102223;28;20039;-84
2023/01/31 02:16:30;;;;;;;12.13;1.95;;;3.20;99.90;;;;;;5095142;28;20036;-84
2023/01/31 02:18:56;;;;;;;12.52;2.60;;;3.20;99.90;;;;;;5094477;28;20035;-85
2023/01/31 02:21:59;;;;;;;18.23;2.65;;;3.20;99.90;;;;;;5087468;27;20035;-84
2023/01/31 02:25:03;;;;;;;12.65;2.28;;;3.30;99.90;;;;;;5086307;27;20047;-84
2023/01/31 02:27:31;;;;;;;16.48;2.45;;;3.30;99.90;;;;;;5119104;27;20131;-84
2023/01/31 02:30:21;;;;;;;13.68;2.50;;;3.30;99.90;;;;;;5086163;27;20552;-84
2023/01/31 02:33:05;;;;;;;12.38;2.13;;;3.40;99.90;;;;;;5088990;28;20557;-84
2023/01/31 02:35:30;;;;;;;;;;;3.40;99.90;;;;;;5107806;27;20088;-84
2023/01/31 02:38:10;;;;;;;13.40;1.88;;;3.50;99.90;;;;;;5065834;28;20323;-84
2023/01/31 02:40:45;;;;;;;16.23;3.15;;;3.50;99.90;;;;;;5100632;28;20413;-84
2023/01/31 02:44:57;;;;;;;15.95;2.25;;;3.50;99.90;;;;;;5083096;28;20412;-84
2023/01/31 02:46:24;;;;;;;15.18;2.20;;;3.60;99.90;;;;;;5102762;28;20396;-84
2023/01/31 02:49:05;;;;;;;13.18;2.03;;;3.60;99.90;;;;;;5101144;27;20672;-84
2023/01/31 02:51:42;;;;;;;16.02;1.98;;;3.60;99.90;;;;;;5087147;27;20041;-83
2023/01/31 02:54:16;;;;;;;11.20;1.85;;;3.60;99.90;;;;;;5097707;27;20043;-84
2023/01/31 02:56:45;;;;;;;11.70;1.67;;;3.50;99.90;;;;;;5100539;27;20384;-85
2023/01/31 02:59:25;;;;;;;11.80;1.63;;;3.60;99.90;;;;;;5092287;28;20051;-84
2023/01/31 03:01:59;;;;;;;17.10;2.17;;;3.60;99.90;;;;;;5114319;27;20039;-84
2023/01/31 03:04:31;;;;;;;16.30;2.40;;;3.60;99.90;;;;;;5086967;27;20048;-84
2023/01/31 03:07:18;;;;;;;17.27;3.30;;;3.60;99.90;;;;;;5079473;28;20036;-84
2023/01/31 03:09:54;;;;;;;12.38;2.42;;;3.60;99.90;;;;;;5090237;28;20043;-85
2023/01/31 03:12:35;;;;;;;15.80;2.70;;;3.60;99.90;;;;;;5098705;27;20040;-84
2023/01/31 03:15:25;;;;;;;13.20;2.30;;;3.70;99.90;;;;;;5075238;28;20058;-84
2023/01/31 03:18:07;;;;;;;13.02;2.95;;;3.70;99.90;;;;;;5101823;27;20047;-84
2023/01/31 03:20:57;;;;;;;14.27;2.28;;;3.80;99.90;;;;;;5083904;28;20035;-84
2023/01/31 03:23:28;;;;;;;12.27;1.92;;;3.80;99.90;;;;;;5107566;27;20385;-84
2023/01/31 03:25:56;;;;;;;12.05;2.28;;;3.80;99.90;;;;;;5107972;27;20031;-84
2023/01/31 03:28:29;;;;;;;15.32;3.15;;;3.80;99.90;;;;;;5080407;27;20090;-84
2023/01/31 03:31:09;;;;;;;15.27;2.40;;;3.80;99.90;;;;;;5084430;27;20077;-85
2023/01/31 03:33:39;;;;;;;17.25;2.00;;;3.80;99.90;;;;;;5102357;28;20119;-84
2023/01/31 03:36:19;;;;;;;15.52;2.45;;;3.80;99.90;;;;;;5102382;28;20031;-84
2023/01/31 03:39:12;;;;;;;17.08;2.50;;;3.90;99.90;;;;;;5110323;27;20408;-83
2023/01/31 03:42:09;;;;;;;15.95;2.20;;;3.90;99.90;;;;;;5085329;27;20058;-84
2023/01/31 03:44:41;;;;;;;14.10;1.92;;;3.80;99.90;;;;;;5094147;28;20044;-84
2023/01/31 03:47:32;;;;;;;13.60;2.25;;;3.90;99.90;;;;;;5087775;27;20043;-84
2023/01/31 03:50:04;;;;;;;14.25;3.08;;;3.90;99.90;;;;;;5106555;27;20115;-84
2023/01/31 03:52:34;;;;;;;15.50;2.00;;;3.90;99.90;;;;;;5097445;28;20062;-85
2023/01/31 03:55:19;;;;;;;19.17;2.45;;;3.90;99.90;;;;;;5109218;27;20391;-84
2023/01/31 03:57:50;;;;;;;11.43;1.92;;;3.90;99.90;;;;;;5094464;28;20534;-84
2023/01/31 04:00:19;;;;;;;16.52;2.35;;;3.90;99.90;;;;;;5094636;28;20082;-84
2023/01/31 04:02:49;;;;;;;14.40;2.30;;;3.90;99.90;;;;;;5095753;28;20040;-85
2023/01/31 04:05:22;;;;;;;9.98;2.08;;;4.00;99.90;;;;;;5076057;28;20493;-85
2023/01/31 04:07:48;;;;;;;11.30;1.95;;;4.10;99.90;;;;;;5093544;27;20059;-85
2023/01/31 04:10:18;;;;;;;13.18;3.03;;;4.00;99.90;;;;;;5082475;27;20078;-85
2023/01/31 04:12:45;;;;;;;20.52;3.08;;;4.00;99.90;;;;;;5106995;27;20145;-85
2023/01/31 04:15:11;;;;;;;15.88;2.80;;;4.60;99.90;;;;;;5102339;27;20032;-84
2023/01/31 04:17:37;;;;;;;17.75;2.67;;;4.50;99.90;;;;;;5105450;27;20032;-85
2023/01/31 04:20:04;;;;;;;12.13;2.72;;;4.10;99.90;;;;;;5100295;28;20075;-85
2023/01/31 04:22:30;;;;;;;17.35;2.97;;;4.20;99.90;;;;;;5091627;27;20378;-85
2023/01/31 04:24:56;;;;;;;24.83;3.05;;;4.20;99.90;;;;;;5083804;27;20036;-84
2023/01/31 04:27:21;;;;;;;14.50;2.65;;;4.20;99.90;;;;;;5098031;28;20036;-85
2023/01/31 04:29:47;;;;;;;18.63;2.38;;;4.30;99.90;;;;;;5087818;28;20027;-84
2023/01/31 04:32:15;;;;;;;19.88;2.67;;;4.30;99.90;;;;;;5095354;28;20106;-84
2023/01/31 04:34:40;;;;;;;18.83;2.95;;;4.30;99.90;;;;;;5087551;28;20039;-85
2023/01/31 04:37:06;;;;;;;19.48;3.45;;;4.30;99.90;;;;;;5069654;28;20039;-84
2023/01/31 04:39:31;;;;;;;19.27;3.28;;;4.40;99.90;;;;;;5090974;28;20050;-85
2023/01/31 04:41:57;;;;;;;19.73;3.70;;;4.40;99.90;;;;;;5088317;28;20065;-84
2023/01/31 04:44:22;;;;;;;18.33;3.15;;;4.50;99.90;;;;;;5089449;28;20061;-86
2023/01/31 04:46:48;;;;;;;20.33;3.08;;;4.50;99.90;;;;;;5078963;28;20452;-85
2023/01/31 04:49:14;;;;;;;20.05;2.92;;;4.50;99.90;;;;;;5076728;28;20489;-85
2023/01/31 04:51:40;;;;;;;15.43;2.60;;;4.60;99.90;;;;;;5093808;28;20533;-85
2023/01/31 04:54:06;;;;;;;14.30;2.95;;;4.60;99.90;;;;;;5093849;28;20495;-86
2023/01/31 04:56:31;;;;;;;18.13;3.75;;;4.70;99.90;;;;;;5076681;28;20043;-85
2023/01/31 04:58:57;;;;;;;23.15;3.92;;;4.80;99.90;;;;;;5094407;28;20036;-85
2023/01/31 05:01:23;;;;;;;24.58;4.18;;;4.70;99.90;;;;;;5099656;27;20047;-85
2023/01/31 05:03:49;;;;;;;19.77;3.75;;;4.80;99.90;;;;;;5089210;27;20039;-85
2023/01/31 05:06:15;;;;;;;17.63;3.65;;;4.80;99.90;;;;;;5084895;28;20031;-84
2023/01/31 05:08:40;;;;;;;13.77;3.20;;;4.90;99.90;;;;;;5100711;28;20027;-85
2023/01/31 05:11:06;;;;;;;20.25;3.35;;;4.90;99.90;;;;;;5106784;28;20149;-85
2023/01/31 05:13:36;;;;;;;19.15;3.97;;;4.90;99.90;;;;;;5104123;28;20031;-85
2023/01/31 05:16:11;;;;;;;25.73;4.10;;;5.00;99.90;;;;;;5099166;28;20081;-84
2023/01/31 05:18:37;;;;;;;19.88;3.50;;;5.00;99.90;;;;;;5074900;28;20035;-86
2023/01/31 05:21:05;;;;;;;21.33;4.10;;;5.00;99.90;;;;;;5106662;28;20039;-84
2023/01/31 05:23:31;;;;;;;23.38;4.78;;;5.10;99.90;;;;;;5105345;28;20074;-86
2023/01/31 05:25:56;;;;;;;22.55;3.58;;;5.20;99.90;;;;;;5086458;28;20063;-86
2023/01/31 05:28:24;;;;;;;24.35;4.13;;;5.20;99.90;;;;;;5098439;28;20160;-84
2023/01/31 05:30:49;;;;;;;18.90;3.53;;;5.20;99.90;;;;;;5103046;28;20050;-86
2023/01/31 05:33:15;;;;;;;28.15;4.88;;;5.20;99.90;;;;;;5098049;28;20044;-85
2023/01/31 05:35:41;;;;;;;18.92;3.83;;;5.30;99.90;;;;;;5102722;28;20912;-86
2023/01/31 05:38:08;;;;;;;18.00;3.20;;;5.30;99.90;;;;;;5106175;28;20047;-86
2023/01/31 05:40:34;;;;;;;21.75;3.80;;;5.30;99.90;;;;;;5102136;28;20122;-85
2023/01/31 05:43:00;;;;;;;18.45;3.03;;;5.30;99.90;;;;;;5091249;28;20044;-85
2023/01/31 05:45:26;;;;;;;18.67;3.67;;;5.30;99.90;;;;;;5086682;28;20023;-85
2023/01/31 05:47:52;;;;;;;25.10;3.90;;;5.30;99.90;;;;;;5082732;28;20095;-86
2023/01/31 05:50:18;;;;;;;31.58;4.25;;;5.30;99.90;;;;;;5106130;28;20152;-86
2023/01/31 05:52:58;;;;;;;21.75;3.92;;;5.30;99.90;;;;;;5086658;28;20039;-85
2023/01/31 05:55:24;;;;;;;25.55;4.70;;;5.40;99.90;;;;;;5078688;28;20180;-86
2023/01/31 05:57:51;;;;;;;25.02;4.72;;;5.40;99.90;;;;;;5095614;28;20515;-86
2023/01/31 06:00:17;;;;;;;24.50;4.30;;;5.40;99.90;;;;;;5075054;28;20057;-86
2023/01/31 06:02:42;;;;;;;23.27;3.75;;;5.40;99.90;;;;;;5095838;28;20122;-85
2023/01/31 06:05:08;;;;;;;26.10;4.63;;;5.40;99.90;;;;;;5089624;28;20036;-86
2023/01/31 06:07:34;;;;;;;23.58;4.78;;;5.40;99.90;;;;;;5075388;28;20126;-86
2023/01/31 06:10:00;;;;;;;19.90;3.92;;;5.40;99.90;;;;;;5084555;28;20036;-86
2023/01/31 06:12:26;;;;;;;22.25;4.07;;;5.40;99.90;;;;;;5086536;27;20027;-86
2023/01/31 06:14:51;;;;;;;24.02;4.45;;;5.40;99.90;;;;;;5084188;28;20031;-85
2023/01/31 06:17:17;;;;;;;23.15;4.70;;;5.40;99.90;;;;;;5095507;28;20088;-86
2023/01/31 06:19:42;;;;;;;27.23;4.88;;;5.40;99.90;;;;;;5077062;28;20028;-85
2023/01/31 06:22:08;;;;;;;19.98;4.28;;;5.40;99.90;;;;;;5095378;28;20035;-86
2023/01/31 06:24:33;;;;;;;24.25;5.22;;;5.40;99.90;;;;;;5100898;27;20118;-86
2023/01/31 06:26:59;;;;;;;24.88;4.47;;;5.40;99.90;;;;;;5070041;28;20122;-86
2023/01/31 06:29:24;;;;;;;23.23;4.63;;;5.40;99.90;;;;;;5098668;28;20488;-87
2023/01/31 06:31:50;;;;;;;26.73;4.10;;;5.40;99.90;;;;;;5098162;27;20087;-86
2023/01/31 06:34:16;;;;;;;24.73;5.07;;;5.40;99.90;;;;;;5083058;28;20097;-85
2023/01/31 06:36:41;;;;;;;21.02;4.13;;;5.40;99.90;;;;;;5077814;28;20489;-86
2023/01/31 06:39:07;;;;;;;25.15;4.75;;;5.40;99.90;;;;;;5098195;28;20038;-86
2023/01/31 06:41:32;;;;;;;24.55;4.30;;;5.40;99.90;;;;;;5078362;28;20039;-85
2023/01/31 06:43:58;;;;;;;20.17;4.30;;;5.50;99.90;;;;;;5091680;28;20461;-85
2023/01/31 06:46:23;;;;;;;18.50;3.85;;;5.40;99.90;;;;;;5083785;28;20036;-86
2023/01/31 06:48:49;;;;;;;25.98;3.58;;;5.50;99.90;;;;;;5103041;28;20656;-86
2023/01/31 06:51:15;;;;;;;22.98;5.20;;;5.50;99.90;;;;;;5106887;28;20036;-86
2023/01/31 06:53:41;;;;;;;20.98;3.85;;;5.40;99.90;;;;;;5095428;28;20123;-85
2023/01/31 06:56:07;;;;;;;25.17;4.63;;;5.50;99.90;;;;;;5079189;28;20078;-86
2023/01/31 06:58:33;;;;;;;20.40;3.78;;;5.50;99.90;;;;;;5078826;28;20040;-85
2023/01/31 07:01:10;;;;;;;24.42;4.03;;;5.50;99.90;;;;;;5095250;28;20074;-86
2023/01/31 07:03:37;;;;;;;18.25;3.25;;;5.40;99.90;;;;;;5079126;28;20641;-85
2023/01/31 07:06:03;;;;;;;22.60;5.45;;;5.40;99.90;;;;;;5095939;28;20497;-86
2023/01/31 07:08:30;;;;;;;22.08;4.93;;;5.70;99.90;;;;;;5095942;28;20111;-86
2023/01/31 07:10:56;;;;;;;17.08;4.07;;;5.40;99.90;;;;;;5095538;28;20035;-86
2023/01/31 07:13:21;;;;;;;24.95;3.90;;;5.40;99.90;;;;;;5094727;28;20456;-85
2023/01/31 07:15:47;;;;;;;18.05;3.42;;;5.40;99.90;;;;;;5095589;28;20074;-85
2023/01/31 07:18:13;;;;;;;21.23;3.75;;;5.40;99.90;;;;;;5080087;27;20043;-85
2023/01/31 07:20:39;;;;;;;21.40;3.45;;;5.40;99.90;;;;;;5097856;27;20114;-86
2023/01/31 07:23:04;;;;;;;16.98;3.33;;;5.50;99.90;;;;;;5103398;28;20295;-85
2023/01/31 07:25:33;;;;;;;20.38;3.90;;;5.50;99.90;;;;;;5095524;28;20039;-86
2023/01/31 07:28:00;;;;;;;21.50;3.63;;;5.50;99.90;;;;;;5093724;28;20621;-85
2023/01/31 07:30:25;;;;;;;19.80;3.63;;;5.50;99.90;;;;;;5090738;28;20031;-85
2023/01/31 07:32:51;;;;;;;18.85;3.88;;;5.50;99.90;;;;;;5074920;28;20062;-85
2023/01/31 07:35:17;;;;;;;19.70;3.28;;;5.60;99.90;;;;;;5106067;28;20103;-86
2023/01/31 07:37:42;;;;;;;15.70;3.10;;;5.60;99.90;;;;;;5078190;28;20036;-86
2023/01/31 07:40:10;;;;;;;16.98;3.47;;;5.60;99.90;;;;;;5082963;28;20450;-87
2023/01/31 07:42:36;;;;;;;17.27;3.20;;;5.60;99.90;;;;;;5087356;28;20489;-86
2023/01/31 07:45:01;;;;;;;20.38;3.45;;;5.60;99.90;;;;;;5096776;27;20091;-86
2023/01/31 07:47:27;;;;;;;13.93;3.47;;;5.60;99.90;;;;;;5103168;28;20120;-86
2023/01/31 07:49:52;;;;;;;22.05;3.55;;;5.60;99.90;;;;;;5094906;28;20077;-86
2023/01/31 07:52:18;;;;;;;13.55;3.08;;;5.70;99.90;;;;;;5094748;28;20043;-86
2023/01/31 07:54:43;;;;;;;12.65;3.35;;;5.70;99.90;;;;;;5098542;27;20395;-86
2023/01/31 07:57:09;;;;;;;20.63;3.15;;;5.70;99.90;;;;;;5099855;28;20485;-86
2023/01/31 07:59:34;;;;;;;13.95;2.92;;;5.70;99.90;;;;;;5077709;27;20137;-87
2023/01/31 08:04:51;;;;;;;19.02;3.78;;;5.70;99.90;;;;;;5051565;27;20464;-85
2023/01/31 08:07:17;;;;;;;16.83;3.33;;;5.80;99.90;;;;;;5100602;28;20043;-85
2023/01/31 08:09:45;;;;;;;18.15;3.05;;;5.70;99.90;;;;;;5083022;28;20035;-86
2023/01/31 08:12:11;;;;;;;17.42;2.85;;;5.70;99.90;;;;;;5092365;27;20404;-86
2023/01/31 08:14:36;;;;;;;16.92;3.30;;;5.80;99.90;;;;;;5109240;28;20118;-87
2023/01/31 08:17:02;;;;;;;14.45;3.20;;;5.80;99.90;;;;;;5101476;28;20119;-86
2023/01/31 08:19:27;;;;;;;17.50;2.85;;;5.80;99.90;;;;;;5106251;27;20484;-86
2023/01/31 08:21:53;;;;;;;16.42;2.70;;;5.80;99.90;;;;;;5097519;28;20040;-86
2023/01/31 08:24:18;;;;;;;18.67;3.50;;;5.90;99.90;;;;;;5093981;28;20088;-86
2023/01/31 08:26:44;;;;;;;18.20;2.92;;;5.90;99.90;;;;;;5094346;28;20034;-86
2023/01/31 08:29:10;;;;;;;16.23;3.10;;;5.90;99.90;;;;;;5093856;28;20099;-87
2023/01/31 08:31:35;;;;;;;9.85;2.30;;;5.90;99.90;;;;;;5097159;27;20027;-86
2023/01/31 08:34:02;;;;;;;19.15;3.05;;;5.90;99.90;;;;;;5103965;28;20039;-87
2023/01/31 08:36:31;;;;;;;16.10;2.95;;;6.00;99.90;;;;;;5076432;28;20493;-87
2023/01/31 08:38:57;;;;;;;11.25;3.08;;;6.00;99.90;;;;;;5096669;28;20408;-87
2023/01/31 08:41:25;;;;;;;14.43;3.08;;;6.10;99.90;;;;;;5103742;27;20050;-86
2023/01/31 08:43:51;;;;;;;18.98;3.38;;;6.00;99.90;;;;;;5084133;28;20058;-87
2023/01/31 08:46:17;;;;;;;13.70;3.05;;;5.80;99.90;;;;;;5105498;28;20115;-86
2023/01/31 08:48:43;;;;;;;11.73;2.78;;;6.10;99.90;;;;;;5099612;27;20038;-87
2023/01/31 08:51:11;;;;;;;13.55;2.92;;;6.10;99.90;;;;;;5083089;27;20032;-86
2023/01/31 08:53:38;;;;;;;17.77;3.10;;;6.10;99.90;;;;;;5101009;28;20039;-86
2023/01/31 08:56:06;;;;;;;17.98;3.40;;;6.10;99.90;;;;;;5093634;28;20050;-86
2023/01/31 08:58:32;;;;;;;15.35;3.67;;;6.10;99.90;;;;;;5070100;28;20076;-86
2023/01/31 09:01:03;;;;;;;13.93;2.97;;;6.20;99.90;;;;;;5091469;28;20115;-86
2023/01/31 09:03:29;;;;;;;16.75;2.65;;;6.10;99.90;;;;;;5083853;28;20038;-85
2023/01/31 09:06:01;;;;;;;19.63;3.75;;;6.20;99.90;;;;;;5091404;28;20481;-86
2023/01/31 09:08:28;;;;;;;20.08;3.50;;;6.20;99.90;;;;;;5096982;28;20119;-86
2023/01/31 09:10:54;;;;;;;15.50;3.38;;;6.20;99.90;;;;;;5079533;28;20357;-86
2023/01/31 09:13:23;;;;;;;12.77;2.50;;;6.20;99.90;;;;;;5072504;28;20028;-85
2023/01/31 09:15:59;;;;;;;19.77;3.25;;;6.20;99.90;;;;;;5100318;28;20032;-85
2023/01/31 09:18:25;;;;;;;19.75;2.80;;;6.30;99.90;;;;;;5078586;28;20508;-87
2023/01/31 09:20:51;;;;;;;13.40;3.15;;;6.30;99.90;;;;;;5087498;28;20366;-86
2023/01/31 09:23:18;;;;;;;13.55;2.55;;;6.30;99.90;;;;;;5088056;28;20032;-87
2023/01/31 09:25:51;;;;;;;19.13;2.85;;;6.40;99.90;;;;;;5094984;28;20074;-86
2023/01/31 09:28:16;;;;;;;15.88;2.85;;;6.40;99.90;;;;;;5092719;28;20127;-87
2023/01/31 09:30:42;;;;;;;18.08;3.35;;;6.40;99.90;;;;;;5074885;28;20036;-85
2023/01/31 09:33:07;;;;;;;15.85;3.03;;;6.40;99.90;;;;;;5099629;27;20117;-86
2023/01/31 09:35:33;;;;;;;16.20;2.53;;;6.50;99.90;;;;;;5098904;28;20492;-86
2023/01/31 09:37:58;;;;;;;17.42;2.97;;;6.50;99.90;;;;;;5084000;28;20501;-86
2023/01/31 09:40:27;;;;;;;18.58;2.90;;;6.50;99.90;;;;;;5085383;28;20133;-86
2023/01/31 09:42:54;;;;;;;18.88;3.22;;;6.50;99.90;;;;;;5089076;28;20046;-87
2023/01/31 09:45:30;;;;;;;14.38;3.17;;;6.60;99.90;;;;;;5092114;28;20435;-87
2023/01/31 09:47:58;;;;;;;17.65;2.80;;;6.60;99.90;;;;;;5094439;28;20031;-86
2023/01/31 09:50:46;;;;;;;15.80;2.70;;;6.50;99.90;;;;;;5075736;28;20036;-86
2023/01/31 09:53:20;;;;;;;15.10;3.58;;;6.50;99.90;;;;;;5094554;28;20084;-86
2023/01/31 09:56:04;;;;;;;13.90;3.47;;;6.50;99.90;;;;;;5094305;28;20031;-87
2023/01/31 09:58:39;;;;;;;17.65;2.72;;;6.50;99.90;;;;;;5092331;27;20042;-87
2023/01/31 10:01:47;;;;;;;20.98;2.97;;;6.50;99.90;;;;;;5073202;28;20027;-87
2023/01/31 10:04:40;;;;;;;19.38;3.63;;;6.60;99.90;;;;;;5090802;28;20478;-87
2023/01/31 10:07:33;;;;;;;20.48;3.60;;;6.60;99.90;;;;;;5074628;28;20036;-87
2023/01/31 10:10:16;;;;;;;18.98;3.80;;;6.60;99.90;;;;;;5081267;28;20043;-87
2023/01/31 10:12:47;;;;;;;19.30;4.25;;;6.60;99.90;;;;;;5104539;27;20087;-87
2023/01/31 10:15:37;;;;;;;16.15;3.50;;;6.60;99.90;;;;;;5103826;27;20565;-87
2023/01/31 10:18:30;;;;;;;16.10;4.07;;;6.60;99.90;;;;;;5077418;28;20046;-87
2023/01/31 10:21:03;;;;;;;18.50;3.28;;;6.60;99.90;;;;;;5087775;27;20515;-87
2023/01/31 10:23:43;;;;;;;18.30;3.47;;;6.60;99.90;;;;;;5082277;28;20123;-86
2023/01/31 10:26:15;;;;;;;19.63;3.30;;;6.50;99.90;;;;;;5095403;28;20118;-87
2023/01/31 10:29:00;;;;;;;17.08;3.13;;;6.50;99.90;;;;;;5079456;28;20063;-86
2023/01/31 10:31:57;;;;;;;18.83;3.47;;;6.50;99.90;;;;;;5067109;28;20043;-86
2023/01/31 10:34:37;;;;;;;15.00;3.40;;;6.40;99.90;;;;;;5096166;28;20795;-86
2023/01/31 10:37:15;;;;;;;19.77;3.92;;;6.40;99.90;;;;;;5096274;28;20051;-87
2023/01/31 10:39:49;;;;;;;18.73;3.35;;;6.40;99.90;;;;;;5093679;28;20075;-86
2023/01/31 10:42:31;;;;;;;19.73;3.40;;;6.40;99.90;;;;;;5096244;28;20043;-86
2023/01/31 10:45:07;;;;;;;17.05;2.95;;;6.40;99.90;;;;;;5095545;28;20093;-85
2023/01/31 10:47:46;;;;;;;25.25;3.95;;;6.40;99.90;;;;;;5096046;28;20039;-86
2023/01/31 10:50:38;;;;;;;19.80;3.58;;;6.40;99.90;;;;;;5078997;28;20043;-87
2023/01/31 10:53:21;;;;;;;18.75;3.97;;;6.40;99.90;;;;;;5095681;28;20067;-84
2023/01/31 10:56:05;;;;;;;17.98;3.40;;;6.50;99.90;;;;;;5096221;28;20036;-86
2023/01/31 10:58:31;;;;;;;12.68;2.90;;;6.50;99.90;;;;;;5094617;28;20039;-86
2023/01/31 11:00:57;;;;;;;28.75;3.50;;;6.50;99.90;;;;;;5078797;28;20058;-85
2023/01/31 11:03:23;;;;;;;15.65;3.42;;;6.50;99.90;;;;;;5058900;28;20032;-86
2023/01/31 11:05:55;;;;;;;18.33;3.90;;;6.50;99.90;;;;;;5073961;28;20067;-85
2023/01/31 11:08:39;;;;;;;16.20;3.25;;;6.50;99.90;;;;;;5056721;28;20032;-85
2023/01/31 11:11:15;;;;;;;23.23;4.47;;;6.60;99.90;;;;;;5079459;28;20490;-85
2023/01/31 11:13:40;;;;;;;20.92;3.92;;;6.60;99.90;;;;;;5057310;28;20043;-85
2023/01/31 11:16:10;;;;;;;15.15;3.28;;;6.60;99.90;;;;;;5062630;28;20048;-85
2023/01/31 11:18:42;;;;;;;17.38;3.38;;;6.60;99.90;;;;;;5073279;28;20064;-84
2023/01/31 11:21:09;;;;;;;23.85;3.80;;;6.60;99.90;;;;;;5061582;28;20398;-85
2023/01/31 11:23:35;;;;;;;19.50;3.80;;;6.60;99.90;;;;;;5057741;28;20704;-84
2023/01/31 11:26:02;;;;;;;19.52;3.67;;;6.60;99.90;;;;;;5088437;28;20044;-85
2023/01/31 11:28:37;;;;;;;18.27;3.50;;;6.60;99.90;;;;;;5077057;28;20044;-84
2023/01/31 11:31:18;;;;;;;18.80;3.53;;;6.60;99.90;;;;;;5105653;28;20392;-84
2023/01/31 11:33:54;;;;;;;18.38;3.65;;;6.60;99.90;;;;;;5091905;28;20036;-84
2023/01/31 11:36:23;;;;;;;14.32;2.90;;;6.60;99.90;;;;;;5072102;27;20455;-84
2023/01/31 11:38:49;;;;;;;15.75;3.80;;;6.60;99.90;;;;;;5097415;27;20043;-84
2023/01/31 11:41:36;;;;;;;16.25;3.80;;;6.70;99.90;;;;;;5097761;27;20031;-85
2023/01/31 11:44:06;;;;;;;16.25;3.75;;;6.60;99.90;;;;;;5088310;28;20429;-83
2023/01/31 11:46:42;;;;;;;21.50;3.60;;;6.70;99.90;;;;;;5092751;28;20118;-84
2023/01/31 11:49:11;;;;;;;25.42;4.00;;;6.70;99.90;;;;;;5094754;27;20547;-85
2023/01/31 11:51:39;;;;;;;23.77;3.58;;;6.70;99.90;;;;;;5088475;27;20035;-84
2023/01/31 11:54:05;;;;;;;22.10;4.95;;;6.80;99.90;;;;;;5074595;28;20141;-84
2023/01/31 11:56:36;;;;;;;23.00;4.03;;;6.80;99.90;;;;;;5094109;28;20127;-84
2023/01/31 11:59:07;;;;;;;21.75;4.53;;;6.90;99.90;;;;;;5104021;28;20048;-84
2023/01/31 12:01:42;;;;;;;21.85;3.78;;;6.90;99.90;;;;;;5086103;28;20071;-84
2023/01/31 12:04:39;;;;;;;15.27;3.55;;;6.90;99.90;;;;;;5077400;28;20127;-85
2023/01/31 12:07:20;;;;;;;14.40;3.80;;;7.00;99.90;;;;;;5097312;28;20146;-84
2023/01/31 12:09:47;;;;;;;22.67;3.83;;;7.10;99.90;;;;;;5085308;28;20051;-83
2023/01/31 12:12:20;;;;;;;20.98;3.90;;;7.20;99.90;;;;;;5089904;28;20051;-84
2023/01/31 12:14:47;;;;;;;23.83;4.07;;;7.20;99.90;;;;;;5100002;27;20134;-84
2023/01/31 12:17:15;;;;;;;25.02;4.15;;;7.30;99.90;;;;;;5062946;27;20065;-85
2023/01/31 12:20:09;;;;;;;18.17;3.40;;;7.40;99.90;;;;;;5079013;27;20051;-85
2023/01/31 12:22:49;;;;;;;17.98;3.55;;;7.50;99.90;;;;;;5093176;28;20044;-84
2023/01/31 12:25:52;;;;;;;19.50;3.55;;;7.50;99.90;;;;;;5076583;28;20084;-85
2023/01/31 12:28:46;;;;;;;22.27;3.72;;;7.60;99.90;;;;;;5083952;28;20038;-84
2023/01/31 12:31:27;;;;;;;15.65;3.13;;;7.70;99.90;;;;;;5084157;28;20408;-86
2023/01/31 12:34:11;;;;;;;19.58;3.47;;;7.80;99.90;;;;;;5092050;28;20039;-85
2023/01/31 12:36:53;;;;;;;;;;;7.80;99.90;;;;;;5093441;28;20718;-86
2023/01/31 12:39:43;;;;;;;21.42;3.08;;;7.90;99.90;;;;;;5091018;28;19920;-86
2023/01/31 12:42:47;;;;;;;19.90;3.20;;;7.90;99.90;;;;;;5074225;28;20096;-85
2023/01/31 12:45:31;;;;;;;;;;;8.00;99.90;;;;;;5093561;28;20508;-85
2023/01/31 12:48:12;;;;;;;17.77;2.90;;;8.00;99.90;;;;;;5088182;28;20006;-86
2023/01/31 12:51:05;;;;;;;15.93;3.63;;;8.00;99.90;;;;;;5088678;28;20040;-86
2023/01/31 12:53:45;;;;;;;16.80;3.25;;;8.00;99.90;;;;;;5088379;28;20074;-86
2023/01/31 12:56:16;;;;;;;18.55;4.70;;;8.00;99.90;;;;;;5087292;28;20044;-85
2023/01/31 12:58:49;;;;;;;11.55;2.45;;;8.10;99.90;;;;;;5083766;28;20382;-86
2023/01/31 13:01:30;;;;;;;15.02;3.70;;;8.10;99.90;;;;;;5088949;28;20457;-86
2023/01/31 13:04:23;;;;;;;12.77;3.13;;;8.20;99.90;;;;;;5088342;28;20110;-85
2023/01/31 13:06:57;;;;;;;16.85;3.30;;;8.20;99.90;;;;;;5071517;28;20408;-83
2023/01/31 13:09:30;;;;;;;19.58;3.20;;;8.20;99.90;;;;;;5078027;28;20035;-85
2023/01/31 13:12:18;;;;;;;16.73;3.67;;;8.10;99.90;;;;;;5082475;28;20062;-86
2023/01/31 13:15:06;;;;;;;13.15;3.25;;;8.20;99.90;;;;;;5074336;28;20032;-85
2023/01/31 13:17:36;;;;;;;16.27;3.38;;;8.10;99.90;;;;;;5071743;28;20038;-85
2023/01/31 13:20:25;;;;;;;18.33;3.92;;;8.10;99.90;;;;;;5092531;28;20050;-85
2023/01/31 13:23:02;;;;;;;15.82;3.20;;;8.10;99.90;;;;;;5099633;28;20406;-85
2023/01/31 13:25:28;;;;;;;17.13;3.13;;;8.10;99.90;;;;;;5095547;27;20039;-85
2023/01/31 13:28:08;;;;;;;15.30;3.15;;;8.10;99.90;;;;;;5079557;28;20088;-86
2023/01/31 13:30:57;;;;;;;14.02;3.30;;;8.10;99.90;;;;;;5087410;28;20040;-85
2023/01/31 13:33:23;;;;;;;18.10;3.47;;;8.10;99.90;;;;;;5099288;27;20039;-85
2023/01/31 13:36:00;;;;;;;13.35;2.63;;;8.10;99.90;;;;;;5087242;28;20109;-85
2023/01/31 13:38:29;;;;;;;13.55;2.80;;;8.10;99.90;;;;;;5113030;27;20082;-86